createdAt,value
2023-01-30T00:07:38.610Z,66
2023-01-30T00:22:46.467Z,61.6
2023-01-30T00:37:54.406Z,55
2023-01-30T00:52:56.466Z,52.8
2023-01-30T01:07:58.284Z,48.4
2023-01-30T01:23:00.138Z,2.2
2023-01-30T01:38:01.985Z,2.2
2023-01-30T01:53:03.925Z,2.2
2023-01-30T02:08:05.782Z,2.2
2023-01-30T02:23:07.635Z,2.2
2023-01-30T02:38:09.439Z,2.2
2023-01-30T02:53:11.270Z,2.2
2023-01-30T03:08:13.098Z,2.2
2023-01-30T03:23:14.909Z,2.2
2023-01-30T03:38:16.771Z,2.2
2023-01-30T03:53:18.663Z,2.2
2023-01-30T04:08:20.516Z,2.2
2023-01-30T04:23:22.380Z,2.2
2023-01-30T04:38:24.250Z,0
2023-01-30T04:53:26.113Z,0
2023-01-30T05:08:27.960Z,0
2023-01-30T05:23:29.793Z,0
2023-01-30T05:38:31.673Z,0
2023-01-30T05:53:33.557Z,2.2
2023-01-30T06:08:35.407Z,2.2
2023-01-30T06:23:37.288Z,2.2
2023-01-30T06:38:39.128Z,2.2
2023-01-30T06:53:41.087Z,2.2
2023-01-30T07:08:43.007Z,2.2
2023-01-30T07:23:44.904Z,2.2
2023-01-30T07:38:46.888Z,2.2
2023-01-30T07:53:48.909Z,2.2
2023-01-30T08:08:50.870Z,2.2
2023-01-30T08:23:52.788Z,2.2
2023-01-30T08:38:54.709Z,0
2023-01-30T08:53:56.605Z,0
2023-01-30T09:08:58.650Z,0
2023-01-30T09:24:00.600Z,0
2023-01-30T09:39:02.563Z,0
2023-01-30T09:54:04.459Z,0
2023-01-30T10:09:06.375Z,0
2023-01-30T10:24:08.321Z,0
2023-01-30T10:39:10.240Z,0
2023-01-30T10:54:12.144Z,0
2023-01-30T11:09:14.085Z,0
2023-01-30T11:24:16.010Z,0
2023-01-30T11:39:17.916Z,0
2023-01-30T11:54:19.854Z,0
2023-01-30T12:09:21.766Z,0
2023-01-30T12:24:23.703Z,0
2023-01-30T12:39:25.632Z,0
2023-01-30T12:54:27.531Z,0
2023-01-30T13:09:29.435Z,0
2023-01-30T13:24:31.358Z,0
2023-01-30T13:39:33.258Z,0
2023-01-30T13:54:35.181Z,0
2023-01-30T14:09:37.060Z,0
2023-01-30T14:24:38.951Z,0
2023-01-30T14:39:40.864Z,0
2023-01-30T14:54:42.830Z,0
2023-01-30T15:09:44.722Z,2.2
2023-01-30T15:24:46.677Z,6.6
2023-01-30T15:39:48.615Z,13.2
2023-01-30T15:54:50.518Z,19.8
2023-01-30T16:10:05.943Z,28.6
2023-01-30T16:25:09.077Z,37.4
2023-01-30T16:40:10.976Z,46.2
2023-01-30T16:55:12.892Z,52.8
2023-01-30T17:10:14.869Z,55
2023-01-30T17:25:16.815Z,66
2023-01-30T17:40:19.099Z,90.2
2023-01-30T17:55:21.923Z,85.8
2023-01-30T18:10:24.021Z,96.8
2023-01-30T18:25:25.955Z,118.8
2023-01-30T18:40:27.846Z,125.4
2023-01-30T18:55:29.927Z,118.8
2023-01-30T19:10:31.852Z,125.4
2023-01-30T19:25:33.750Z,116.6
2023-01-30T19:40:35.612Z,112.2
2023-01-30T19:55:37.539Z,123.2
2023-01-30T20:10:39.440Z,114.4
2023-01-30T20:25:41.328Z,162.8
2023-01-30T20:40:43.307Z,173.8
2023-01-30T20:55:45.284Z,162.8
2023-01-30T21:10:47.204Z,136.4
2023-01-30T21:25:49.112Z,147.4
2023-01-30T21:40:51.042Z,143
2023-01-30T21:55:52.977Z,136.4
2023-01-30T22:10:55.097Z,136.4
2023-01-30T22:25:57.397Z,140.8
2023-01-30T22:40:59.357Z,134.2
2023-01-30T22:56:01.318Z,143
2023-01-30T23:11:03.346Z,138.6
2023-01-30T23:26:05.261Z,107.8
2023-01-30T23:41:07.228Z,94.6
2023-01-30T23:56:09.143Z,77
